sensor_id;sensor_type;location;lat;lon;timestamp;P1;durP1;ratioP1;P2;durP2;ratioP2
64011;SDS011;50211;52.768;12.124;2023-04-15T00:01:03;16.40;;;6.43;;
64011;SDS011;50211;52.768;12.124;2023-04-15T00:03:29;13.37;;;5.97;;
64011;SDS011;50211;52.768;12.124;2023-04-15T00:05:56;13.20;;;5.90;;
64011;SDS011;50211;52.768;12.124;2023-04-15T00:08:22;13.27;;;6.03;;
64011;SDS011;50211;52.768;12.124;2023-04-15T00:10:48;14.67;;;6.60;;
64011;SDS011;50211;52.768;12.124;2023-04-15T00:13:14;14.07;;;6.70;;
64011;SDS011;50211;52.768;12.124;2023-04-15T00:15:39;13.73;;;6.23;;
64011;SDS011;50211;52.768;12.124;2023-04-15T00:18:05;15.90;;;6.90;;
64011;SDS011;50211;52.768;12.124;2023-04-15T00:20:32;13.70;;;6.93;;
64011;SDS011;50211;52.768;12.124;2023-04-15T00:22:58;15.53;;;7.20;;
64011;SDS011;50211;52.768;12.124;2023-04-15T00:25:24;15.00;;;6.43;;
64011;SDS011;50211;52.768;12.124;2023-04-15T00:27:50;20.57;;;7.40;;
64011;SDS011;50211;52.768;12.124;2023-04-15T00:30:15;16.80;;;8.17;;
64011;SDS011;50211;52.768;12.124;2023-04-15T00:32:41;16.23;;;6.23;;
64011;SDS011;50211;52.768;12.124;2023-04-15T00:35:06;15.03;;;7.83;;
64011;SDS011;50211;52.768;12.124;2023-04-15T00:37:32;16.40;;;7.10;;
64011;SDS011;50211;52.768;12.124;2023-04-15T00:39:59;15.83;;;6.93;;
64011;SDS011;50211;52.768;12.124;2023-04-15T00:42:25;15.90;;;6.73;;
64011;SDS011;50211;52.768;12.124;2023-04-15T00:44:51;16.20;;;7.50;;
64011;SDS011;50211;52.768;12.124;2023-04-15T00:47:17;18.43;;;7.23;;
64011;SDS011;50211;52.768;12.124;2023-04-15T00:49:44;17.40;;;7.07;;
64011;SDS011;50211;52.768;12.124;2023-04-15T00:52:09;17.77;;;7.77;;
64011;SDS011;50211;52.768;12.124;2023-04-15T00:54:35;20.47;;;7.87;;
64011;SDS011;50211;52.768;12.124;2023-04-15T00:57:01;17.57;;;7.00;;
64011;SDS011;50211;52.768;12.124;2023-04-15T00:59:30;19.40;;;8.20;;
64011;SDS011;50211;52.768;12.124;2023-04-15T01:01:57;16.53;;;7.07;;
64011;SDS011;50211;52.768;12.124;2023-04-15T01:04:22;15.93;;;7.67;;
64011;SDS011;50211;52.768;12.124;2023-04-15T01:06:48;16.77;;;8.43;;
64011;SDS011;50211;52.768;12.124;2023-04-15T01:09:14;19.03;;;8.50;;
64011;SDS011;50211;52.768;12.124;2023-04-15T01:11:40;20.30;;;8.53;;
64011;SDS011;50211;52.768;12.124;2023-04-15T01:14:05;18.73;;;7.87;;
64011;SDS011;50211;52.768;12.124;2023-04-15T01:16:32;21.23;;;8.80;;
64011;SDS011;50211;52.768;12.124;2023-04-15T01:18:58;20.50;;;8.50;;
64011;SDS011;50211;52.768;12.124;2023-04-15T01:21:24;20.20;;;9.23;;
64011;SDS011;50211;52.768;12.124;2023-04-15T01:23:50;18.27;;;8.73;;
64011;SDS011;50211;52.768;12.124;2023-04-15T01:26:17;23.60;;;10.53;;
64011;SDS011;50211;52.768;12.124;2023-04-15T01:28:43;23.53;;;8.57;;
64011;SDS011;50211;52.768;12.124;2023-04-15T01:31:12;22.77;;;9.47;;
64011;SDS011;50211;52.768;12.124;2023-04-15T01:33:40;20.03;;;8.87;;
64011;SDS011;50211;52.768;12.124;2023-04-15T01:36:06;22.80;;;9.47;;
64011;SDS011;50211;52.768;12.124;2023-04-15T01:38:33;24.40;;;10.07;;
64011;SDS011;50211;52.768;12.124;2023-04-15T01:41:00;24.37;;;10.10;;
64011;SDS011;50211;52.768;12.124;2023-04-15T01:43:26;23.70;;;10.00;;
64011;SDS011;50211;52.768;12.124;2023-04-15T01:45:52;20.03;;;9.60;;
64011;SDS011;50211;52.768;12.124;2023-04-15T01:48:17;27.47;;;11.10;;
64011;SDS011;50211;52.768;12.124;2023-04-15T01:50:43;24.83;;;10.30;;
64011;SDS011;50211;52.768;12.124;2023-04-15T01:53:09;23.80;;;10.20;;
64011;SDS011;50211;52.768;12.124;2023-04-15T01:55:35;22.33;;;9.93;;
64011;SDS011;50211;52.768;12.124;2023-04-15T01:58:00;24.10;;;10.63;;
64011;SDS011;50211;52.768;12.124;2023-04-15T02:00:26;22.27;;;10.00;;
64011;SDS011;50211;52.768;12.124;2023-04-15T02:02:52;21.97;;;9.93;;
64011;SDS011;50211;52.768;12.124;2023-04-15T02:05:17;23.30;;;10.67;;
64011;SDS011;50211;52.768;12.124;2023-04-15T02:07:43;22.20;;;10.40;;
64011;SDS011;50211;52.768;12.124;2023-04-15T02:10:09;21.43;;;10.27;;
64011;SDS011;50211;52.768;12.124;2023-04-15T02:12:37;24.53;;;10.90;;
64011;SDS011;50211;52.768;12.124;2023-04-15T02:15:03;23.53;;;10.93;;
64011;SDS011;50211;52.768;12.124;2023-04-15T02:17:29;25.77;;;11.20;;
64011;SDS011;50211;52.768;12.124;2023-04-15T02:19:55;22.47;;;10.07;;
64011;SDS011;50211;52.768;12.124;2023-04-15T02:22:21;29.80;;;12.30;;
64011;SDS011;50211;52.768;12.124;2023-04-15T02:24:46;24.77;;;10.70;;
64011;SDS011;50211;52.768;12.124;2023-04-15T02:27:15;28.03;;;11.87;;
64011;SDS011;50211;52.768;12.124;2023-04-15T02:29:42;29.87;;;12.97;;
64011;SDS011;50211;52.768;12.124;2023-04-15T02:32:09;27.10;;;10.90;;
64011;SDS011;50211;52.768;12.124;2023-04-15T02:34:35;23.93;;;10.53;;
64011;SDS011;50211;52.768;12.124;2023-04-15T02:37:03;29.23;;;11.17;;
64011;SDS011;50211;52.768;12.124;2023-04-15T02:39:29;25.80;;;10.80;;
64011;SDS011;50211;52.768;12.124;2023-04-15T02:41:54;29.97;;;12.00;;
64011;SDS011;50211;52.768;12.124;2023-04-15T02:44:23;26.73;;;11.50;;
64011;SDS011;50211;52.768;12.124;2023-04-15T02:46:48;27.97;;;11.43;;
64011;SDS011;50211;52.768;12.124;2023-04-15T02:49:16;32.17;;;11.23;;
64011;SDS011;50211;52.768;12.124;2023-04-15T02:51:42;30.63;;;12.57;;
64011;SDS011;50211;52.768;12.124;2023-04-15T02:54:08;30.33;;;12.17;;
64011;SDS011;50211;52.768;12.124;2023-04-15T02:56:33;32.60;;;13.23;;
64011;SDS011;50211;52.768;12.124;2023-04-15T02:58:59;33.03;;;12.70;;
64011;SDS011;50211;52.768;12.124;2023-04-15T03:01:25;30.70;;;12.53;;
64011;SDS011;50211;52.768;12.124;2023-04-15T03:03:51;35.03;;;14.57;;
64011;SDS011;50211;52.768;12.124;2023-04-15T03:06:16;36.37;;;13.53;;
64011;SDS011;50211;52.768;12.124;2023-04-15T03:08:42;31.70;;;13.10;;
64011;SDS011;50211;52.768;12.124;2023-04-15T03:11:07;37.53;;;15.40;;
64011;SDS011;50211;52.768;12.124;2023-04-15T03:13:33;34.97;;;13.67;;
64011;SDS011;50211;52.768;12.124;2023-04-15T03:15:58;36.73;;;14.20;;
64011;SDS011;50211;52.768;12.124;2023-04-15T03:18:23;35.93;;;14.07;;
64011;SDS011;50211;52.768;12.124;2023-04-15T03:20:49;40.67;;;15.70;;
64011;SDS011;50211;52.768;12.124;2023-04-15T03:23:15;34.50;;;13.47;;
64011;SDS011;50211;52.768;12.124;2023-04-15T03:25:40;38.07;;;15.63;;
64011;SDS011;50211;52.768;12.124;2023-04-15T03:28:06;35.20;;;13.83;;
64011;SDS011;50211;52.768;12.124;2023-04-15T03:30:31;32.23;;;14.00;;
64011;SDS011;50211;52.768;12.124;2023-04-15T03:32:57;36.57;;;15.37;;
64011;SDS011;50211;52.768;12.124;2023-04-15T03:35:22;42.57;;;15.80;;
64011;SDS011;50211;52.768;12.124;2023-04-15T03:37:48;38.10;;;15.17;;
64011;SDS011;50211;52.768;12.124;2023-04-15T03:40:13;43.60;;;17.40;;
64011;SDS011;50211;52.768;12.124;2023-04-15T03:42:39;40.80;;;16.27;;
64011;SDS011;50211;52.768;12.124;2023-04-15T03:45:05;39.00;;;15.40;;
64011;SDS011;50211;52.768;12.124;2023-04-15T03:47:31;49.17;;;16.63;;
64011;SDS011;50211;52.768;12.124;2023-04-15T03:49:57;43.63;;;16.77;;
64011;SDS011;50211;52.768;12.124;2023-04-15T03:52:22;46.50;;;17.27;;
64011;SDS011;50211;52.768;12.124;2023-04-15T03:54:48;48.97;;;17.97;;
64011;SDS011;50211;52.768;12.124;2023-04-15T03:57:13;50.13;;;19.47;;
64011;SDS011;50211;52.768;12.124;2023-04-15T03:59:39;54.57;;;19.87;;
64011;SDS011;50211;52.768;12.124;2023-04-15T04:02:05;54.00;;;20.40;;
64011;SDS011;50211;52.768;12.124;2023-04-15T04:04:30;47.10;;;18.67;;
64011;SDS011;50211;52.768;12.124;2023-04-15T04:06:56;49.50;;;17.77;;
64011;SDS011;50211;52.768;12.124;2023-04-15T04:09:21;47.97;;;19.67;;
64011;SDS011;50211;52.768;12.124;2023-04-15T04:11:47;52.57;;;19.60;;
64011;SDS011;50211;52.768;12.124;2023-04-15T04:14:12;48.30;;;19.23;;
64011;SDS011;50211;52.768;12.124;2023-04-15T04:16:38;52.13;;;19.37;;
64011;SDS011;50211;52.768;12.124;2023-04-15T04:19:03;54.27;;;20.30;;
64011;SDS011;50211;52.768;12.124;2023-04-15T04:21:29;52.17;;;21.43;;
64011;SDS011;50211;52.768;12.124;2023-04-15T04:23:54;54.00;;;21.53;;
64011;SDS011;50211;52.768;12.124;2023-04-15T04:26:20;50.63;;;19.70;;
64011;SDS011;50211;52.768;12.124;2023-04-15T04:28:46;53.30;;;20.73;;
64011;SDS011;50211;52.768;12.124;2023-04-15T04:31:12;48.27;;;18.90;;
64011;SDS011;50211;52.768;12.124;2023-04-15T04:33:37;61.33;;;23.67;;
64011;SDS011;50211;52.768;12.124;2023-04-15T04:36:03;69.43;;;25.17;;
64011;SDS011;50211;52.768;12.124;2023-04-15T04:38:29;73.53;;;28.37;;
64011;SDS011;50211;52.768;12.124;2023-04-15T04:40:55;79.70;;;28.20;;
64011;SDS011;50211;52.768;12.124;2023-04-15T04:43:20;77.63;;;28.93;;
64011;SDS011;50211;52.768;12.124;2023-04-15T04:45:46;68.73;;;26.17;;
64011;SDS011;50211;52.768;12.124;2023-04-15T04:48:12;86.63;;;32.87;;
64011;SDS011;50211;52.768;12.124;2023-04-15T04:50:38;88.57;;;32.10;;
64011;SDS011;50211;52.768;12.124;2023-04-15T04:53:03;81.13;;;29.97;;
64011;SDS011;50211;52.768;12.124;2023-04-15T04:55:29;71.70;;;27.53;;
64011;SDS011;50211;52.768;12.124;2023-04-15T04:57:55;77.50;;;32.23;;
64011;SDS011;50211;52.768;12.124;2023-04-15T05:00:21;72.17;;;30.57;;
64011;SDS011;50211;52.768;12.124;2023-04-15T05:02:46;77.63;;;28.73;;
64011;SDS011;50211;52.768;12.124;2023-04-15T05:05:12;62.37;;;26.27;;
64011;SDS011;50211;52.768;12.124;2023-04-15T05:07:37;64.17;;;25.23;;
64011;SDS011;50211;52.768;12.124;2023-04-15T05:10:03;78.67;;;35.03;;
64011;SDS011;50211;52.768;12.124;2023-04-15T05:12:30;73.10;;;32.73;;
64011;SDS011;50211;52.768;12.124;2023-04-15T05:14:56;78.10;;;38.00;;
64011;SDS011;50211;52.768;12.124;2023-04-15T05:17:22;74.03;;;30.90;;
64011;SDS011;50211;52.768;12.124;2023-04-15T05:19:47;77.63;;;33.03;;
64011;SDS011;50211;52.768;12.124;2023-04-15T05:22:13;71.03;;;30.80;;
64011;SDS011;50211;52.768;12.124;2023-04-15T05:24:38;62.97;;;26.60;;
64011;SDS011;50211;52.768;12.124;2023-04-15T05:27:04;66.47;;;27.13;;
64011;SDS011;50211;52.768;12.124;2023-04-15T05:29:29;59.17;;;24.60;;
64011;SDS011;50211;52.768;12.124;2023-04-15T05:31:55;53.10;;;22.50;;
64011;SDS011;50211;52.768;12.124;2023-04-15T05:34:21;65.93;;;28.57;;
64011;SDS011;50211;52.768;12.124;2023-04-15T05:36:46;57.63;;;23.67;;
64011;SDS011;50211;52.768;12.124;2023-04-15T05:39:12;71.37;;;27.73;;
64011;SDS011;50211;52.768;12.124;2023-04-15T05:41:38;60.00;;;25.30;;
64011;SDS011;50211;52.768;12.124;2023-04-15T05:44:03;55.93;;;23.30;;
64011;SDS011;50211;52.768;12.124;2023-04-15T05:46:29;59.10;;;25.83;;
64011;SDS011;50211;52.768;12.124;2023-04-15T05:48:54;55.57;;;22.93;;
64011;SDS011;50211;52.768;12.124;2023-04-15T05:51:20;57.70;;;22.37;;
64011;SDS011;50211;52.768;12.124;2023-04-15T05:53:46;58.97;;;23.73;;
64011;SDS011;50211;52.768;12.124;2023-04-15T05:56:11;58.50;;;22.73;;
64011;SDS011;50211;52.768;12.124;2023-04-15T05:58:37;52.13;;;23.27;;
64011;SDS011;50211;52.768;12.124;2023-04-15T06:01:02;56.37;;;23.07;;
64011;SDS011;50211;52.768;12.124;2023-04-15T06:03:28;56.77;;;23.03;;
64011;SDS011;50211;52.768;12.124;2023-04-15T06:05:54;52.00;;;22.83;;
64011;SDS011;50211;52.768;12.124;2023-04-15T06:08:20;51.42;;;22.48;;
64011;SDS011;50211;52.768;12.124;2023-04-15T06:10:46;49.80;;;22.30;;
64011;SDS011;50211;52.768;12.124;2023-04-15T06:13:11;47.07;;;21.70;;
64011;SDS011;50211;52.768;12.124;2023-04-15T06:15:37;50.53;;;23.55;;
64011;SDS011;50211;52.768;12.124;2023-04-15T06:18:03;49.42;;;22.02;;
64011;SDS011;50211;52.768;12.124;2023-04-15T06:20:29;42.33;;;20.00;;
64011;SDS011;50211;52.768;12.124;2023-04-15T06:22:54;44.33;;;20.50;;
64011;SDS011;50211;52.768;12.124;2023-04-15T06:25:21;42.07;;;20.87;;
64011;SDS011;50211;52.768;12.124;2023-04-15T06:27:46;36.07;;;17.43;;
64011;SDS011;50211;52.768;12.124;2023-04-15T06:30:12;41.42;;;19.05;;
64011;SDS011;50211;52.768;12.124;2023-04-15T06:32:38;35.53;;;18.35;;
64011;SDS011;50211;52.768;12.124;2023-04-15T06:35:03;40.60;;;19.08;;
64011;SDS011;50211;52.768;12.124;2023-04-15T06:37:29;35.97;;;18.63;;
64011;SDS011;50211;52.768;12.124;2023-04-15T06:39:55;34.67;;;17.77;;
64011;SDS011;50211;52.768;12.124;2023-04-15T06:42:20;42.33;;;19.07;;
64011;SDS011;50211;52.768;12.124;2023-04-15T06:44:47;39.47;;;18.87;;
64011;SDS011;50211;52.768;12.124;2023-04-15T06:47:12;35.20;;;17.47;;
64011;SDS011;50211;52.768;12.124;2023-04-15T06:49:38;123.90;;;52.13;;
64011;SDS011;50211;52.768;12.124;2023-04-15T06:52:04;36.55;;;18.38;;
64011;SDS011;50211;52.768;12.124;2023-04-15T06:54:30;42.40;;;21.73;;
64011;SDS011;50211;52.768;12.124;2023-04-15T06:56:55;30.85;;;17.77;;
64011;SDS011;50211;52.768;12.124;2023-04-15T06:59:21;38.83;;;21.70;;
64011;SDS011;50211;52.768;12.124;2023-04-15T07:01:46;34.08;;;20.35;;
64011;SDS011;50211;52.768;12.124;2023-04-15T07:04:12;38.38;;;21.73;;
64011;SDS011;50211;52.768;12.124;2023-04-15T07:06:37;36.50;;;20.83;;
64011;SDS011;50211;52.768;12.124;2023-04-15T07:09:03;30.07;;;16.47;;
64011;SDS011;50211;52.768;12.124;2023-04-15T07:11:29;35.38;;;19.05;;
64011;SDS011;50211;52.768;12.124;2023-04-15T07:13:54;29.40;;;15.88;;
64011;SDS011;50211;52.768;12.124;2023-04-15T07:16:21;28.40;;;15.75;;
64011;SDS011;50211;52.768;12.124;2023-04-15T07:18:47;29.65;;;16.45;;
64011;SDS011;50211;52.768;12.124;2023-04-15T07:21:12;30.00;;;16.42;;
64011;SDS011;50211;52.768;12.124;2023-04-15T07:23:38;30.53;;;16.50;;
64011;SDS011;50211;52.768;12.124;2023-04-15T07:26:03;31.85;;;16.30;;
64011;SDS011;50211;52.768;12.124;2023-04-15T07:28:29;26.98;;;14.05;;
64011;SDS011;50211;52.768;12.124;2023-04-15T07:30:54;28.90;;;14.80;;
64011;SDS011;50211;52.768;12.124;2023-04-15T07:33:21;27.40;;;15.57;;
64011;SDS011;50211;52.768;12.124;2023-04-15T07:35:47;29.88;;;15.20;;
64011;SDS011;50211;52.768;12.124;2023-04-15T07:38:13;29.73;;;15.43;;
64011;SDS011;50211;52.768;12.124;2023-04-15T07:40:38;31.58;;;16.92;;
64011;SDS011;50211;52.768;12.124;2023-04-15T07:43:04;34.72;;;16.67;;
64011;SDS011;50211;52.768;12.124;2023-04-15T07:45:30;30.42;;;15.35;;
64011;SDS011;50211;52.768;12.124;2023-04-15T07:47:56;32.45;;;16.05;;
64011;SDS011;50211;52.768;12.124;2023-04-15T07:50:21;28.63;;;15.10;;
64011;SDS011;50211;52.768;12.124;2023-04-15T07:52:48;25.13;;;14.52;;
64011;SDS011;50211;52.768;12.124;2023-04-15T07:55:14;32.50;;;17.25;;
64011;SDS011;50211;52.768;12.124;2023-04-15T07:57:43;37.67;;;17.60;;
64011;SDS011;50211;52.768;12.124;2023-04-15T08:00:08;23.30;;;14.13;;
64011;SDS011;50211;52.768;12.124;2023-04-15T08:02:35;28.58;;;15.00;;
64011;SDS011;50211;52.768;12.124;2023-04-15T08:05:01;25.80;;;14.73;;
64011;SDS011;50211;52.768;12.124;2023-04-15T08:07:28;29.13;;;15.50;;
64011;SDS011;50211;52.768;12.124;2023-04-15T08:09:54;24.55;;;13.95;;
64011;SDS011;50211;52.768;12.124;2023-04-15T08:12:19;28.85;;;14.85;;
64011;SDS011;50211;52.768;12.124;2023-04-15T08:14:45;23.88;;;14.38;;
64011;SDS011;50211;52.768;12.124;2023-04-15T08:17:11;23.33;;;13.57;;
64011;SDS011;50211;52.768;12.124;2023-04-15T08:19:37;26.98;;;14.30;;
64011;SDS011;50211;52.768;12.124;2023-04-15T08:22:03;21.10;;;13.52;;
64011;SDS011;50211;52.768;12.124;2023-04-15T08:24:29;23.02;;;14.35;;
64011;SDS011;50211;52.768;12.124;2023-04-15T08:26:55;23.60;;;13.75;;
64011;SDS011;50211;52.768;12.124;2023-04-15T08:29:21;23.75;;;13.30;;
64011;SDS011;50211;52.768;12.124;2023-04-15T08:31:47;20.30;;;13.07;;
64011;SDS011;50211;52.768;12.124;2023-04-15T08:34:12;21.88;;;12.25;;
64011;SDS011;50211;52.768;12.124;2023-04-15T08:36:39;22.20;;;13.25;;
64011;SDS011;50211;52.768;12.124;2023-04-15T08:39:05;17.92;;;12.27;;
64011;SDS011;50211;52.768;12.124;2023-04-15T08:41:38;20.90;;;11.70;;
64011;SDS011;50211;52.768;12.124;2023-04-15T08:44:07;19.92;;;12.63;;
64011;SDS011;50211;52.768;12.124;2023-04-15T08:46:33;23.23;;;13.27;;
64011;SDS011;50211;52.768;12.124;2023-04-15T08:48:58;20.38;;;12.50;;
64011;SDS011;50211;52.768;12.124;2023-04-15T08:51:27;21.65;;;12.25;;
64011;SDS011;50211;52.768;12.124;2023-04-15T08:53:53;18.50;;;12.20;;
64011;SDS011;50211;52.768;12.124;2023-04-15T08:56:18;18.73;;;11.30;;
64011;SDS011;50211;52.768;12.124;2023-04-15T08:58:52;19.67;;;12.98;;
64011;SDS011;50211;52.768;12.124;2023-04-15T09:01:18;23.63;;;12.93;;
64011;SDS011;50211;52.768;12.124;2023-04-15T09:03:45;20.85;;;12.10;;
64011;SDS011;50211;52.768;12.124;2023-04-15T09:06:15;19.27;;;11.27;;
64011;SDS011;50211;52.768;12.124;2023-04-15T09:08:41;20.98;;;12.40;;
64011;SDS011;50211;52.768;12.124;2023-04-15T09:11:06;19.75;;;12.63;;
64011;SDS011;50211;52.768;12.124;2023-04-15T09:13:32;19.50;;;12.48;;
64011;SDS011;50211;52.768;12.124;2023-04-15T09:15:59;17.27;;;11.93;;
64011;SDS011;50211;52.768;12.124;2023-04-15T09:18:31;23.10;;;13.27;;
64011;SDS011;50211;52.768;12.124;2023-04-15T09:23:32;18.27;;;12.05;;
64011;SDS011;50211;52.768;12.124;2023-04-15T09:25:59;18.42;;;11.77;;
64011;SDS011;50211;52.768;12.124;2023-04-15T09:28:26;18.88;;;11.60;;
64011;SDS011;50211;52.768;12.124;2023-04-15T09:30:56;17.00;;;10.82;;
64011;SDS011;50211;52.768;12.124;2023-04-15T09:33:26;18.08;;;11.60;;
64011;SDS011;50211;52.768;12.124;2023-04-15T09:36:00;21.67;;;11.70;;
64011;SDS011;50211;52.768;12.124;2023-04-15T09:38:27;17.60;;;10.80;;
64011;SDS011;50211;52.768;12.124;2023-04-15T09:40:53;20.33;;;11.50;;
64011;SDS011;50211;52.768;12.124;2023-04-15T09:43:19;27.45;;;14.35;;
64011;SDS011;50211;52.768;12.124;2023-04-15T09:45:49;20.05;;;11.15;;
64011;SDS011;50211;52.768;12.124;2023-04-15T09:48:17;18.40;;;11.95;;
64011;SDS011;50211;52.768;12.124;2023-04-15T09:50:47;16.83;;;10.77;;
64011;SDS011;50211;52.768;12.124;2023-04-15T09:53:17;19.65;;;12.35;;
64011;SDS011;50211;52.768;12.124;2023-04-15T09:55:50;17.95;;;10.60;;
64011;SDS011;50211;52.768;12.124;2023-04-15T09:58:25;21.75;;;12.32;;
64011;SDS011;50211;52.768;12.124;2023-04-15T10:00:52;21.67;;;12.40;;
64011;SDS011;50211;52.768;12.124;2023-04-15T10:03:30;19.23;;;11.32;;
64011;SDS011;50211;52.768;12.124;2023-04-15T10:06:00;19.63;;;11.10;;
64011;SDS011;50211;52.768;12.124;2023-04-15T10:08:28;22.15;;;12.43;;
64011;SDS011;50211;52.768;12.124;2023-04-15T10:10:56;21.02;;;12.10;;
64011;SDS011;50211;52.768;12.124;2023-04-15T10:13:23;22.08;;;12.60;;
64011;SDS011;50211;52.768;12.124;2023-04-15T10:15:50;17.67;;;10.93;;
64011;SDS011;50211;52.768;12.124;2023-04-15T10:18:22;16.30;;;9.98;;
64011;SDS011;50211;52.768;12.124;2023-04-15T10:20:50;18.30;;;10.80;;
64011;SDS011;50211;52.768;12.124;2023-04-15T10:23:17;21.15;;;12.32;;
64011;SDS011;50211;52.768;12.124;2023-04-15T10:25:44;26.58;;;13.75;;
64011;SDS011;50211;52.768;12.124;2023-04-15T10:28:10;24.45;;;14.20;;
64011;SDS011;50211;52.768;12.124;2023-04-15T10:30:36;19.00;;;11.48;;
64011;SDS011;50211;52.768;12.124;2023-04-15T10:33:03;21.00;;;12.40;;
64011;SDS011;50211;52.768;12.124;2023-04-15T10:35:29;17.30;;;11.90;;
64011;SDS011;50211;52.768;12.124;2023-04-15T10:37:58;19.02;;;12.38;;
64011;SDS011;50211;52.768;12.124;2023-04-15T10:40:27;17.55;;;11.38;;
64011;SDS011;50211;52.768;12.124;2023-04-15T10:42:57;19.83;;;11.73;;
64011;SDS011;50211;52.768;12.124;2023-04-15T10:45:24;17.73;;;9.95;;
64011;SDS011;50211;52.768;12.124;2023-04-15T10:47:58;15.20;;;10.95;;
64011;SDS011;50211;52.768;12.124;2023-04-15T10:50:26;18.70;;;10.45;;
64011;SDS011;50211;52.768;12.124;2023-04-15T10:52:54;19.00;;;11.73;;
64011;SDS011;50211;52.768;12.124;2023-04-15T10:55:21;16.45;;;11.02;;
64011;SDS011;50211;52.768;12.124;2023-04-15T10:57:57;17.83;;;11.02;;
64011;SDS011;50211;52.768;12.124;2023-04-15T11:00:25;17.67;;;10.93;;
64011;SDS011;50211;52.768;12.124;2023-04-15T11:02:54;18.70;;;11.50;;
64011;SDS011;50211;52.768;12.124;2023-04-15T11:05:22;21.27;;;11.68;;
64011;SDS011;50211;52.768;12.124;2023-04-15T11:08:08;17.88;;;11.77;;
64011;SDS011;50211;52.768;12.124;2023-04-15T11:10:55;13.43;;;10.30;;
64011;SDS011;50211;52.768;12.124;2023-04-15T11:13:20;17.38;;;10.77;;
64011;SDS011;50211;52.768;12.124;2023-04-15T11:15:47;14.77;;;10.40;;
64011;SDS011;50211;52.768;12.124;2023-04-15T11:20:47;17.40;;;11.23;;
64011;SDS011;50211;52.768;12.124;2023-04-15T11:23:17;16.42;;;10.95;;
64011;SDS011;50211;52.768;12.124;2023-04-15T11:25:44;16.00;;;10.90;;
64011;SDS011;50211;52.768;12.124;2023-04-15T11:28:10;17.35;;;11.13;;
64011;SDS011;50211;52.768;12.124;2023-04-15T11:30:37;19.15;;;11.52;;
64011;SDS011;50211;52.768;12.124;2023-04-15T11:33:04;16.67;;;10.18;;
64011;SDS011;50211;52.768;12.124;2023-04-15T11:35:34;17.05;;;10.55;;
64011;SDS011;50211;52.768;12.124;2023-04-15T11:38:03;22.13;;;11.32;;
64011;SDS011;50211;52.768;12.124;2023-04-15T11:40:30;15.13;;;10.05;;
64011;SDS011;50211;52.768;12.124;2023-04-15T11:43:07;14.88;;;10.75;;
64011;SDS011;50211;52.768;12.124;2023-04-15T11:45:34;18.67;;;11.07;;
64011;SDS011;50211;52.768;12.124;2023-04-15T11:48:04;17.10;;;10.93;;
64011;SDS011;50211;52.768;12.124;2023-04-15T11:50:31;15.85;;;11.38;;
64011;SDS011;50211;52.768;12.124;2023-04-15T11:52:57;18.35;;;10.52;;
64011;SDS011;50211;52.768;12.124;2023-04-15T11:55:25;17.40;;;10.85;;
64011;SDS011;50211;52.768;12.124;2023-04-15T11:58:09;15.30;;;10.70;;
64011;SDS011;50211;52.768;12.124;2023-04-15T12:00:47;17.38;;;10.90;;
64011;SDS011;50211;52.768;12.124;2023-04-15T12:14:03;17.77;;;11.05;;
64011;SDS011;50211;52.768;12.124;2023-04-15T12:16:29;17.50;;;11.18;;
64011;SDS011;50211;52.768;12.124;2023-04-15T12:18:56;17.52;;;11.50;;
64011;SDS011;50211;52.768;12.124;2023-04-15T12:21:23;17.77;;;10.55;;
64011;SDS011;50211;52.768;12.124;2023-04-15T12:23:54;18.85;;;11.55;;
64011;SDS011;50211;52.768;12.124;2023-04-15T12:26:27;18.50;;;11.43;;
64011;SDS011;50211;52.768;12.124;2023-04-15T12:28:54;22.17;;;11.45;;
64011;SDS011;50211;52.768;12.124;2023-04-15T12:31:21;16.80;;;11.90;;
64011;SDS011;50211;52.768;12.124;2023-04-15T12:33:47;18.67;;;12.23;;
64011;SDS011;50211;52.768;12.124;2023-04-15T12:36:13;20.00;;;11.77;;
64011;SDS011;50211;52.768;12.124;2023-04-15T12:38:39;20.92;;;12.20;;
64011;SDS011;50211;52.768;12.124;2023-04-15T12:41:05;15.85;;;11.13;;
64011;SDS011;50211;52.768;12.124;2023-04-15T12:43:30;18.35;;;12.88;;
64011;SDS011;50211;52.768;12.124;2023-04-15T12:45:56;21.38;;;12.75;;
64011;SDS011;50211;52.768;12.124;2023-04-15T12:48:21;18.75;;;11.63;;
64011;SDS011;50211;52.768;12.124;2023-04-15T12:50:47;19.50;;;12.18;;
64011;SDS011;50211;52.768;12.124;2023-04-15T12:53:12;20.10;;;13.05;;
64011;SDS011;50211;52.768;12.124;2023-04-15T12:55:38;19.23;;;11.88;;
64011;SDS011;50211;52.768;12.124;2023-04-15T12:58:03;23.92;;;13.10;;
64011;SDS011;50211;52.768;12.124;2023-04-15T13:00:29;19.33;;;12.27;;
64011;SDS011;50211;52.768;12.124;2023-04-15T13:02:57;20.75;;;12.20;;
64011;SDS011;50211;52.768;12.124;2023-04-15T13:05:23;20.73;;;12.20;;
64011;SDS011;50211;52.768;12.124;2023-04-15T13:07:48;21.20;;;12.07;;
64011;SDS011;50211;52.768;12.124;2023-04-15T13:10:14;25.15;;;12.10;;
64011;SDS011;50211;52.768;12.124;2023-04-15T13:12:39;18.73;;;11.40;;
64011;SDS011;50211;52.768;12.124;2023-04-15T13:15:05;20.50;;;11.90;;
64011;SDS011;50211;52.768;12.124;2023-04-15T13:17:33;20.95;;;12.02;;
64011;SDS011;50211;52.768;12.124;2023-04-15T13:19:58;18.35;;;11.70;;
64011;SDS011;50211;52.768;12.124;2023-04-15T13:22:24;22.67;;;12.73;;
64011;SDS011;50211;52.768;12.124;2023-04-15T13:24:50;21.83;;;11.82;;
64011;SDS011;50211;52.768;12.124;2023-04-15T13:27:16;18.55;;;11.15;;
64011;SDS011;50211;52.768;12.124;2023-04-15T13:29:41;16.88;;;10.80;;
64011;SDS011;50211;52.768;12.124;2023-04-15T13:32:07;21.40;;;11.82;;
64011;SDS011;50211;52.768;12.124;2023-04-15T13:34:32;16.65;;;11.10;;
64011;SDS011;50211;52.768;12.124;2023-04-15T13:36:57;19.63;;;11.45;;
64011;SDS011;50211;52.768;12.124;2023-04-15T13:39:23;22.25;;;12.23;;
64011;SDS011;50211;52.768;12.124;2023-04-15T13:41:48;18.52;;;12.18;;
64011;SDS011;50211;52.768;12.124;2023-04-15T13:44:14;19.48;;;11.82;;
64011;SDS011;50211;52.768;12.124;2023-04-15T13:46:40;20.70;;;11.93;;
64011;SDS011;50211;52.768;12.124;2023-04-15T13:49:08;17.25;;;11.63;;
64011;SDS011;50211;52.768;12.124;2023-04-15T13:51:33;19.30;;;12.27;;
64011;SDS011;50211;52.768;12.124;2023-04-15T13:54:00;19.45;;;11.15;;
64011;SDS011;50211;52.768;12.124;2023-04-15T13:56:26;19.98;;;12.20;;
64011;SDS011;50211;52.768;12.124;2023-04-15T13:58:52;19.95;;;12.45;;
64011;SDS011;50211;52.768;12.124;2023-04-15T14:01:22;19.58;;;11.77;;
64011;SDS011;50211;52.768;12.124;2023-04-15T14:03:48;23.23;;;12.48;;
64011;SDS011;50211;52.768;12.124;2023-04-15T14:06:14;23.98;;;13.52;;
64011;SDS011;50211;52.768;12.124;2023-04-15T14:08:39;23.70;;;13.88;;
64011;SDS011;50211;52.768;12.124;2023-04-15T14:11:05;21.45;;;12.88;;
64011;SDS011;50211;52.768;12.124;2023-04-15T14:13:30;19.55;;;11.52;;
64011;SDS011;50211;52.768;12.124;2023-04-15T14:15:56;20.45;;;12.77;;
64011;SDS011;50211;52.768;12.124;2023-04-15T14:18:21;21.48;;;11.73;;
64011;SDS011;50211;52.768;12.124;2023-04-15T14:20:47;18.33;;;11.68;;
64011;SDS011;50211;52.768;12.124;2023-04-15T14:23:12;24.40;;;12.90;;